createdAt,value
2022-10-06T00:02:07.163Z,76.21
2022-10-06T00:04:39.074Z,76.52
2022-10-06T00:07:10.960Z,76.38
2022-10-06T00:09:42.779Z,76.55
2022-10-06T00:12:15.125Z,76.45
2022-10-06T00:14:46.928Z,76.32
2022-10-06T00:17:18.752Z,76.18
2022-10-06T00:19:50.562Z,76.01
2022-10-06T00:22:22.405Z,75.68
2022-10-06T00:24:55.132Z,75.08
2022-10-06T00:27:33.624Z,74.56
2022-10-06T00:30:07.579Z,74.28
2022-10-06T00:32:40.138Z,74.09
2022-10-06T00:35:11.916Z,74.09
2022-10-06T00:37:43.710Z,73.99
2022-10-06T00:40:15.934Z,73.47
2022-10-06T00:42:59.606Z,73.33
2022-10-06T00:45:40.329Z,73.46
2022-10-06T00:48:24.265Z,73.35
2022-10-06T00:50:57.419Z,73.12
2022-10-06T00:53:30.234Z,73.23
2022-10-06T00:56:02.189Z,73.12
2022-10-06T00:58:34.305Z,73.27
2022-10-06T01:01:06.674Z,73.31
2022-10-06T01:03:45.012Z,73.29
2022-10-06T01:06:16.770Z,73.20
2022-10-06T01:08:49.284Z,73.31
2022-10-06T01:11:21.306Z,73.25
2022-10-06T01:13:53.226Z,73.16
2022-10-06T01:16:27.115Z,73.20
2022-10-06T01:19:03.335Z,73.14
2022-10-06T01:21:41.804Z,73.50
2022-10-06T01:24:14.467Z,73.64
2022-10-06T01:26:50.033Z,73.62
2022-10-06T01:29:22.634Z,73.75
2022-10-06T01:31:54.818Z,73.91
2022-10-06T01:34:28.100Z,74.03
2022-10-06T01:37:00.497Z,74.32
2022-10-06T01:39:33.192Z,74.52
2022-10-06T01:42:05.897Z,74.61
2022-10-06T01:44:38.026Z,74.93
2022-10-06T01:47:10.133Z,74.84
2022-10-06T01:49:42.089Z,75.25
2022-10-06T01:52:14.418Z,75.43
2022-10-06T01:54:46.382Z,75.39
2022-10-06T01:57:18.465Z,75.51
2022-10-06T01:59:54.724Z,75.71
2022-10-06T02:02:30.935Z,75.85
2022-10-06T02:05:03.897Z,76.11
2022-10-06T02:07:36.164Z,76.24
2022-10-06T02:10:08.795Z,76.37
2022-10-06T02:12:40.881Z,76.48
2022-10-06T02:15:14.762Z,76.40
2022-10-06T02:17:47.946Z,76.51
2022-10-06T02:20:20.339Z,76.73
2022-10-06T02:22:52.230Z,76.53
2022-10-06T02:25:24.174Z,76.78
2022-10-06T02:27:56.468Z,76.72
2022-10-06T02:30:28.457Z,76.45
2022-10-06T02:33:00.704Z,76.58
2022-10-06T02:35:33.012Z,76.51
2022-10-06T02:38:05.813Z,76.40
2022-10-06T02:40:38.069Z,76.75
2022-10-06T02:43:09.944Z,76.93
2022-10-06T02:45:43.229Z,76.76
2022-10-06T02:48:15.035Z,76.53
2022-10-06T02:51:02.802Z,76.75
2022-10-06T02:53:36.065Z,76.53
2022-10-06T02:56:13.034Z,76.67
2022-10-06T02:58:45.763Z,76.55
2022-10-06T03:01:25.969Z,76.48
2022-10-06T03:04:00.335Z,76.37
2022-10-06T03:06:32.434Z,76.19
2022-10-06T03:09:14.275Z,76.44
2022-10-06T03:11:48.373Z,76.29
2022-10-06T03:14:36.114Z,76.38
2022-10-06T03:17:09.918Z,76.43
2022-10-06T03:19:45.484Z,76.46
2022-10-06T03:22:17.403Z,76.46
2022-10-06T03:24:58.178Z,76.41
2022-10-06T03:27:30.863Z,76.64
2022-10-06T03:30:07.395Z,76.47
2022-10-06T03:32:41.061Z,76.59
2022-10-06T03:35:15.479Z,76.55
2022-10-06T03:37:47.766Z,76.43
2022-10-06T03:40:19.791Z,76.37
2022-10-06T03:42:51.755Z,76.21
2022-10-06T03:45:24.070Z,76.10
2022-10-06T03:47:55.936Z,76.09
2022-10-06T03:50:27.750Z,75.87
2022-10-06T03:52:59.567Z,76.06
2022-10-06T03:55:31.706Z,75.55
2022-10-06T03:58:03.595Z,75.52
2022-10-06T04:00:35.874Z,75.31
2022-10-06T04:03:07.803Z,74.88
2022-10-06T04:05:39.709Z,75.07
2022-10-06T04:08:11.673Z,74.97
2022-10-06T04:10:43.550Z,74.80
2022-10-06T04:13:19.338Z,74.50
2022-10-06T04:15:51.300Z,74.78
2022-10-06T04:18:23.678Z,74.54
2022-10-06T04:20:59.834Z,74.65
2022-10-06T04:23:31.947Z,74.87
2022-10-06T04:26:09.752Z,74.76
2022-10-06T04:28:44.216Z,74.91
2022-10-06T04:31:19.124Z,75.08
2022-10-06T04:34:01.929Z,75.16
2022-10-06T04:36:38.151Z,75.26
2022-10-06T04:39:11.706Z,75.36
2022-10-06T04:41:47.124Z,75.63
2022-10-06T04:44:23.154Z,75.61
2022-10-06T04:46:55.502Z,75.72
2022-10-06T04:49:27.414Z,75.82
2022-10-06T04:52:00.153Z,75.98
2022-10-06T04:54:35.690Z,76.09
2022-10-06T04:57:09.591Z,76.18
2022-10-06T05:00:05.985Z,76.28
2022-10-06T05:02:40.471Z,76.17
2022-10-06T05:05:12.321Z,76.36
2022-10-06T05:07:47.379Z,76.41
2022-10-06T05:10:19.655Z,76.32
2022-10-06T05:12:51.914Z,76.41
2022-10-06T05:15:24.249Z,76.45
2022-10-06T05:17:56.090Z,76.31
2022-10-06T05:20:28.082Z,76.46
2022-10-06T05:23:00.481Z,76.15
2022-10-06T05:25:32.378Z,76.09
2022-10-06T05:28:04.241Z,76.02
2022-10-06T05:30:36.064Z,76.04
2022-10-06T05:33:08.041Z,75.89
2022-10-06T05:35:39.916Z,75.75
2022-10-06T05:38:11.975Z,75.61
2022-10-06T05:40:43.857Z,75.48
2022-10-06T05:43:17.184Z,75.77
2022-10-06T05:45:59.556Z,75.56
2022-10-06T05:48:32.345Z,75.70
2022-10-06T05:51:07.227Z,75.65
2022-10-06T05:53:40.817Z,75.55
2022-10-06T05:56:15.078Z,75.70
2022-10-06T05:58:51.781Z,75.83
2022-10-06T06:01:26.473Z,75.97
2022-10-06T06:04:04.289Z,76.07
2022-10-06T06:06:43.246Z,76.00
2022-10-06T06:09:20.837Z,75.90
2022-10-06T06:12:00.181Z,75.90
2022-10-06T06:15:16.764Z,75.62
2022-10-06T06:17:58.349Z,75.66
2022-10-06T06:20:31.297Z,75.73
2022-10-06T06:23:03.832Z,75.51
2022-10-06T06:25:35.911Z,75.31
2022-10-06T06:28:09.468Z,75.28
2022-10-06T06:30:41.456Z,74.70
2022-10-06T06:33:13.777Z,74.78
2022-10-06T06:35:45.664Z,74.66
2022-10-06T06:38:18.994Z,74.66
2022-10-06T06:40:51.733Z,74.48
2022-10-06T06:43:27.720Z,73.98
2022-10-06T06:46:20.573Z,73.89
2022-10-06T06:49:05.632Z,73.95
2022-10-06T06:51:44.532Z,73.73
2022-10-06T06:54:18.203Z,73.87
2022-10-06T06:56:56.530Z,73.55
2022-10-06T06:59:29.293Z,73.44
2022-10-06T07:02:03.434Z,73.25
2022-10-06T07:04:38.576Z,72.91
2022-10-06T07:07:13.523Z,72.84
2022-10-06T07:09:47.535Z,72.73
2022-10-06T07:12:21.636Z,72.59
2022-10-06T07:15:17.009Z,72.49
2022-10-06T07:18:10.479Z,72.29
2022-10-06T07:21:01.487Z,72.12
2022-10-06T07:23:52.277Z,72.15
2022-10-06T07:26:30.974Z,71.80
2022-10-06T07:29:03.031Z,71.87
2022-10-06T07:31:36.256Z,71.74
2022-10-06T07:34:08.293Z,71.50
2022-10-06T07:36:40.267Z,71.32
2022-10-06T07:39:12.874Z,71.08
2022-10-06T07:41:44.822Z,70.62
2022-10-06T07:44:16.745Z,70.79
2022-10-06T07:46:52.355Z,70.22
2022-10-06T07:49:37.141Z,70.62
2022-10-06T07:52:09.058Z,69.97
2022-10-06T07:54:41.355Z,69.51
2022-10-06T07:57:35.311Z,69.31
2022-10-06T08:00:08.197Z,69.44
2022-10-06T08:02:46.171Z,69.32
2022-10-06T08:05:18.134Z,69.16
2022-10-06T08:07:51.964Z,69.10
2022-10-06T08:10:23.701Z,69.03
2022-10-06T08:12:55.633Z,69.08
2022-10-06T08:15:27.600Z,68.94
2022-10-06T08:18:00.764Z,68.87
2022-10-06T08:20:32.553Z,68.83
2022-10-06T08:23:08.639Z,68.71
2022-10-06T08:25:43.866Z,68.43
2022-10-06T08:28:16.311Z,68.20
2022-10-06T08:30:52.655Z,68.07
2022-10-06T08:33:24.957Z,67.97
2022-10-06T08:36:04.602Z,67.71
2022-10-06T08:38:37.421Z,68.01
2022-10-06T08:41:25.697Z,67.47
2022-10-06T08:44:16.605Z,66.86
2022-10-06T08:47:01.158Z,66.50
2022-10-06T08:49:47.303Z,66.56
2022-10-06T08:52:46.918Z,66.64
2022-10-06T08:55:37.938Z,66.40
2022-10-06T08:58:22.428Z,66.31
2022-10-06T09:00:56.988Z,66.64
2022-10-06T09:03:29.864Z,66.46
2022-10-06T09:06:16.329Z,65.39
2022-10-06T09:08:53.150Z,65.48
2022-10-06T09:11:50.972Z,63.93
2022-10-06T09:14:33.273Z,64.35
2022-10-06T09:17:13.123Z,64.00
2022-10-06T09:19:50.390Z,64.19
2022-10-06T09:22:23.821Z,63.96
2022-10-06T09:24:59.691Z,63.33
2022-10-06T09:27:36.594Z,63.37
2022-10-06T09:30:12.526Z,63.25
2022-10-06T09:32:48.496Z,63.40
2022-10-06T09:35:23.097Z,62.88
2022-10-06T09:38:08.267Z,62.45
2022-10-06T09:40:49.268Z,62.38
2022-10-06T09:43:28.561Z,62.69
2022-10-06T09:46:41.656Z,61.48
2022-10-06T09:49:20.808Z,62.01
2022-10-06T09:52:02.969Z,61.01
2022-10-06T09:54:35.099Z,61.49
2022-10-06T09:57:15.071Z,60.76
2022-10-06T09:59:48.006Z,61.45
2022-10-06T10:02:41.049Z,60.91
2022-10-06T10:05:21.020Z,60.93
2022-10-06T10:08:14.518Z,60.28
2022-10-06T10:10:46.487Z,61.08
2022-10-06T10:13:24.346Z,60.64
2022-10-06T10:16:01.121Z,60.54
2022-10-06T10:18:33.879Z,60.53
2022-10-06T10:21:07.648Z,60.50
2022-10-06T10:23:43.634Z,59.85
2022-10-06T10:26:20.686Z,59.21
2022-10-06T10:28:58.656Z,59.31
2022-10-06T10:31:49.231Z,58.46
2022-10-06T10:34:49.703Z,58.36
2022-10-06T10:37:35.954Z,58.36
2022-10-06T10:40:29.673Z,58.75
2022-10-06T10:43:10.689Z,58.02
2022-10-06T10:45:48.859Z,57.78
2022-10-06T10:48:44.952Z,57.15
2022-10-06T10:51:33.351Z,56.61
2022-10-06T10:54:20.054Z,56.82
2022-10-06T10:56:53.158Z,56.92
2022-10-06T10:59:30.319Z,55.68
2022-10-06T11:02:12.124Z,55.92
2022-10-06T11:04:47.204Z,55.75
2022-10-06T11:07:34.487Z,55.22
2022-10-06T11:10:19.391Z,55.09
2022-10-06T11:13:10.354Z,55.12
2022-10-06T11:16:18.726Z,54.88
2022-10-06T11:19:07.891Z,52.72
2022-10-06T11:21:44.691Z,53.45
2022-10-06T11:24:40.232Z,51.29
2022-10-06T11:27:21.798Z,50.37
2022-10-06T11:29:57.801Z,49.53
2022-10-06T11:32:36.661Z,48.29
2022-10-06T11:35:21.504Z,45.13
2022-10-06T11:38:00.372Z,42.84
2022-10-06T11:41:12.380Z,40.00
2022-10-06T11:44:04.419Z,38.38
2022-10-06T11:46:46.458Z,37.37
2022-10-06T11:49:30.270Z,36.71
2022-10-06T11:52:08.810Z,36.60
2022-10-06T11:54:43.502Z,37.42
2022-10-06T11:57:30.551Z,37.07
2022-10-06T12:00:03.482Z,37.85
2022-10-06T12:02:41.476Z,36.81
2022-10-06T12:05:47.140Z,37.14
2022-10-06T12:08:08.971Z,35.79
2022-10-06T12:10:49.169Z,32.59
2022-10-06T12:19:23.412Z,32.21
2022-10-06T12:22:06.701Z,30.61
2022-10-06T12:24:45.813Z,31.13
2022-10-06T12:27:42.133Z,31.13
2022-10-06T12:30:14.319Z,32.89
2022-10-06T12:32:52.410Z,33.05
2022-10-06T12:35:37.671Z,33.38
2022-10-06T12:38:31.670Z,33.55
2022-10-06T12:41:03.816Z,34.48
2022-10-06T12:43:47.933Z,32.63
2022-10-06T12:46:24.322Z,33.64
2022-10-06T12:49:18.745Z,33.59
2022-10-06T12:51:54.563Z,32.99
2022-10-06T12:54:39.419Z,31.25
2022-10-06T12:57:14.180Z,30.96
2022-10-06T12:59:47.359Z,31.17
2022-10-06T13:02:20.270Z,30.42
2022-10-06T13:04:55.453Z,29.81
2022-10-06T13:07:33.154Z,29.88
2022-10-06T13:10:19.601Z,30.58
2022-10-06T13:12:52.585Z,31.68
2022-10-06T13:15:34.388Z,32.80
2022-10-06T13:18:13.138Z,33.28
2022-10-06T13:20:51.352Z,34.43
2022-10-06T13:23:26.173Z,35.07
2022-10-06T13:26:00.464Z,35.75
2022-10-06T13:28:44.762Z,36.48
2022-10-06T13:31:27.799Z,37.36
2022-10-06T13:34:05.442Z,38.03
2022-10-06T13:36:42.295Z,39.30
2022-10-06T13:39:14.893Z,39.10
2022-10-06T13:41:52.364Z,39.95
2022-10-06T13:44:28.211Z,40.26
2022-10-06T13:47:08.812Z,41.24
2022-10-06T13:50:02.057Z,41.56
2022-10-06T13:52:37.792Z,41.30
2022-10-06T13:55:25.737Z,41.98
2022-10-06T13:58:00.039Z,41.60
2022-10-06T14:00:46.119Z,42.28
2022-10-06T14:03:22.276Z,41.76
2022-10-06T14:06:16.983Z,41.49
2022-10-06T14:08:54.227Z,41.74
2022-10-06T14:11:28.148Z,42.08
2022-10-06T14:14:02.627Z,42.38
2022-10-06T14:16:34.592Z,42.67
2022-10-06T14:19:06.707Z,42.97
2022-10-06T14:21:41.447Z,43.23
2022-10-06T14:24:16.221Z,43.47
2022-10-06T14:26:49.776Z,43.52
2022-10-06T14:29:22.617Z,43.44
2022-10-06T14:31:54.644Z,43.42
2022-10-06T14:34:28.601Z,43.38
2022-10-06T14:37:00.725Z,43.26
2022-10-06T14:39:32.881Z,43.48
2022-10-06T14:42:04.912Z,43.92
2022-10-06T14:44:38.129Z,44.17
2022-10-06T14:47:10.618Z,43.86
2022-10-06T14:49:44.323Z,44.10
2022-10-06T14:52:16.215Z,44.37
2022-10-06T14:54:48.327Z,44.33
2022-10-06T14:57:21.445Z,44.40
2022-10-06T14:59:53.338Z,44.58
2022-10-06T15:02:25.258Z,44.84
2022-10-06T15:04:57.185Z,44.68
2022-10-06T15:07:47.637Z,44.76
2022-10-06T15:10:19.512Z,44.74
2022-10-06T15:12:52.198Z,44.66
2022-10-06T15:15:27.822Z,44.94
2022-10-06T15:18:02.973Z,45.03
2022-10-06T15:20:34.932Z,45.05
2022-10-06T15:23:06.791Z,45.38
2022-10-06T15:25:57.864Z,45.32
2022-10-06T15:28:48.508Z,45.24
2022-10-06T15:31:24.879Z,45.36
2022-10-06T15:33:57.004Z,45.34
2022-10-06T15:36:31.195Z,45.42
2022-10-06T15:39:11.126Z,45.60
2022-10-06T15:41:44.144Z,45.81
2022-10-06T15:44:17.000Z,46.03
2022-10-06T15:46:49.786Z,46.17
2022-10-06T15:49:23.596Z,46.45
2022-10-06T15:51:57.334Z,46.41
2022-10-06T15:54:34.467Z,46.51
2022-10-06T15:57:08.687Z,46.83
2022-10-06T15:59:40.787Z,46.79
2022-10-06T16:02:15.669Z,46.74
2022-10-06T16:05:17.783Z,47.18
2022-10-06T16:07:50.116Z,47.33
2022-10-06T16:10:22.304Z,47.32
2022-10-06T16:12:54.285Z,47.41
2022-10-06T16:15:26.261Z,47.37
2022-10-06T16:17:58.081Z,47.62
2022-10-06T16:20:29.982Z,47.70
2022-10-06T16:23:01.980Z,47.88
2022-10-06T16:25:33.806Z,48.01
2022-10-06T16:28:05.766Z,48.32
2022-10-06T16:30:37.622Z,48.07
2022-10-06T16:33:09.588Z,48.14
2022-10-06T16:35:41.462Z,48.59
2022-10-06T16:38:13.464Z,48.81
2022-10-06T16:40:53.869Z,49.33
2022-10-06T16:43:35.003Z,49.43
2022-10-06T16:46:09.537Z,49.28
2022-10-06T16:48:43.616Z,49.43
2022-10-06T16:51:18.182Z,49.66
2022-10-06T16:53:52.570Z,49.87
2022-10-06T16:56:27.526Z,50.06
2022-10-06T16:59:13.387Z,50.19
2022-10-06T17:01:45.647Z,50.16
2022-10-06T17:04:20.251Z,50.44
2022-10-06T17:06:54.143Z,50.63
2022-10-06T17:09:27.964Z,50.69
2022-10-06T17:12:01.610Z,50.95
2022-10-06T17:14:34.717Z,51.17
2022-10-06T17:17:06.580Z,51.21
2022-10-06T17:19:38.564Z,51.30
2022-10-06T17:22:10.497Z,51.70
2022-10-06T17:24:42.330Z,51.93
2022-10-06T17:27:14.263Z,51.82
2022-10-06T17:29:46.394Z,52.11
2022-10-06T17:32:18.301Z,52.18
2022-10-06T17:34:55.217Z,52.24
2022-10-06T17:37:27.214Z,52.37
2022-10-06T17:39:59.021Z,52.42
2022-10-06T17:42:30.969Z,52.57
2022-10-06T17:45:04.056Z,52.58
2022-10-06T17:47:36.051Z,52.89
2022-10-06T17:50:08.227Z,52.91
2022-10-06T17:52:40.331Z,52.91
2022-10-06T17:55:13.339Z,52.91
2022-10-06T17:57:45.288Z,53.12
2022-10-06T18:00:17.896Z,53.07
2022-10-06T18:02:49.737Z,53.23
2022-10-06T18:05:21.621Z,53.16
2022-10-06T18:07:55.154Z,53.34
2022-10-06T18:10:45.720Z,53.27
2022-10-06T18:13:17.709Z,53.57
2022-10-06T18:15:50.940Z,53.42
2022-10-06T18:18:25.160Z,53.51
2022-10-06T18:21:03.919Z,53.92
2022-10-06T18:23:36.232Z,53.97
2022-10-06T18:26:08.559Z,53.81
2022-10-06T18:28:40.413Z,54.10
2022-10-06T18:31:15.063Z,54.17
2022-10-06T18:36:41.243Z,54.45
2022-10-06T18:39:13.243Z,54.44
2022-10-06T18:41:46.231Z,54.55
2022-10-06T18:44:38.181Z,54.66
2022-10-06T18:47:28.846Z,54.75
2022-10-06T18:50:00.985Z,54.61
2022-10-06T18:52:32.980Z,54.89
2022-10-06T18:55:05.285Z,55.00
2022-10-06T18:57:37.209Z,55.01
2022-10-06T19:00:10.815Z,55.10
2022-10-06T19:02:46.156Z,55.24
2022-10-06T19:05:20.296Z,55.20
2022-10-06T19:07:53.789Z,55.16
2022-10-06T19:10:25.794Z,55.26
2022-10-06T19:12:58.256Z,55.44
2022-10-06T19:15:30.052Z,55.75
2022-10-06T19:18:02.047Z,55.82
2022-10-06T19:20:33.937Z,55.68
2022-10-06T19:23:05.891Z,55.87
2022-10-06T19:25:37.732Z,55.94
2022-10-06T19:28:09.530Z,56.26
2022-10-06T19:30:41.438Z,56.39
2022-10-06T19:33:14.033Z,56.57
2022-10-06T19:35:51.934Z,56.86
2022-10-06T19:38:24.329Z,56.55
2022-10-06T19:41:16.562Z,56.92
2022-10-06T19:43:48.413Z,56.82
2022-10-06T19:46:20.789Z,57.09
2022-10-06T19:48:54.543Z,57.16
2022-10-06T19:51:26.473Z,57.09
2022-10-06T19:53:58.446Z,57.36
2022-10-06T19:56:32.967Z,57.54
2022-10-06T19:59:05.135Z,57.70
2022-10-06T20:01:37.020Z,57.71
2022-10-06T20:04:12.270Z,57.86
2022-10-06T20:06:44.265Z,58.19
2022-10-06T20:09:19.238Z,58.60
2022-10-06T20:11:51.536Z,58.29
2022-10-06T20:14:23.719Z,58.63
2022-10-06T20:16:56.169Z,58.39
2022-10-06T20:19:28.101Z,58.83
2022-10-06T20:22:00.021Z,58.89
2022-10-06T20:24:31.963Z,58.80
2022-10-06T20:27:03.948Z,58.86
2022-10-06T20:29:35.746Z,59.04
2022-10-06T20:32:07.906Z,59.35
2022-10-06T20:34:40.840Z,59.28
2022-10-06T20:37:12.647Z,59.43
2022-10-06T20:40:03.295Z,59.56
2022-10-06T20:42:35.194Z,59.55
2022-10-06T20:45:07.510Z,59.57
2022-10-06T20:47:39.399Z,59.72
2022-10-06T20:50:11.353Z,59.89
2022-10-06T20:52:43.161Z,59.96
2022-10-06T20:55:15.046Z,59.88
2022-10-06T20:57:48.590Z,59.94
2022-10-06T21:00:23.090Z,59.93
2022-10-06T21:02:56.357Z,59.91
2022-10-06T21:05:30.932Z,59.92
2022-10-06T21:08:02.789Z,60.06
2022-10-06T21:10:35.070Z,60.17
2022-10-06T21:13:07.954Z,60.17
2022-10-06T21:15:45.336Z,60.47
2022-10-06T21:18:18.525Z,60.52
2022-10-06T21:21:00.924Z,60.99
2022-10-06T21:23:39.459Z,60.77
2022-10-06T21:26:16.643Z,60.92
2022-10-06T21:28:51.512Z,60.87
2022-10-06T21:31:29.854Z,61.22
2022-10-06T21:34:02.468Z,61.12
2022-10-06T21:36:34.267Z,61.08
2022-10-06T21:39:06.888Z,61.14
2022-10-06T21:41:39.824Z,61.11
2022-10-06T21:44:16.126Z,61.24
2022-10-06T21:46:48.945Z,61.40
2022-10-06T21:49:25.109Z,61.78
2022-10-06T21:51:58.561Z,61.32
2022-10-06T21:54:30.645Z,61.69
2022-10-06T21:57:02.558Z,61.52
2022-10-06T21:59:34.570Z,61.83
2022-10-06T22:02:06.699Z,61.93
2022-10-06T22:04:38.635Z,61.90
2022-10-06T22:07:10.532Z,61.75
2022-10-06T22:09:42.356Z,61.85
2022-10-06T22:12:14.363Z,61.99
2022-10-06T22:14:46.222Z,62.10
2022-10-06T22:17:18.034Z,61.93
2022-10-06T22:19:49.928Z,62.24
2022-10-06T22:22:22.075Z,62.09
2022-10-06T22:24:54.587Z,62.33
2022-10-06T22:27:26.440Z,62.45
2022-10-06T22:29:58.418Z,62.48
2022-10-06T22:32:31.462Z,62.39
2022-10-06T22:35:03.480Z,62.53
2022-10-06T22:37:35.398Z,62.51
2022-10-06T22:40:08.222Z,62.49
2022-10-06T22:42:40.168Z,62.77
2022-10-06T22:45:12.510Z,62.85
2022-10-06T22:47:47.200Z,62.71
2022-10-06T22:50:19.224Z,62.80
2022-10-06T22:52:51.225Z,62.84
2022-10-06T22:55:23.264Z,63.05
2022-10-06T22:57:55.183Z,62.85
2022-10-06T23:00:27.896Z,62.93
2022-10-06T23:02:59.932Z,62.80
2022-10-06T23:05:32.339Z,63.11
2022-10-06T23:08:05.668Z,62.94
2022-10-06T23:10:37.559Z,63.26
2022-10-06T23:13:09.828Z,63.20
2022-10-06T23:15:41.606Z,63.32
2022-10-06T23:18:14.130Z,63.51
2022-10-06T23:20:45.960Z,63.41
2022-10-06T23:23:17.836Z,63.54
2022-10-06T23:25:49.666Z,63.44
2022-10-06T23:28:21.758Z,63.54
2022-10-06T23:30:53.628Z,63.72
2022-10-06T23:33:25.712Z,63.56
2022-10-06T23:35:59.026Z,63.52
2022-10-06T23:38:30.922Z,63.65
2022-10-06T23:41:02.950Z,63.46
2022-10-06T23:43:34.993Z,63.61
2022-10-06T23:46:07.090Z,63.47
2022-10-06T23:48:39.350Z,63.39
2022-10-06T23:51:17.170Z,63.73
2022-10-06T23:53:49.046Z,63.62
2022-10-06T23:56:21.746Z,63.48
2022-10-06T23:58:53.637Z,63.72
